sensor_id;sensor_type;location;lat;lon;timestamp;P1;durP1;ratioP1;P2;durP2;ratioP2
50745;SDS011;36711;51.972;21.204;2022-10-04T00:01:31;5.30;;;2.30;;
50745;SDS011;36711;51.972;21.204;2022-10-04T00:04:12;4.40;;;2.50;;
50745;SDS011;36711;51.972;21.204;2022-10-04T00:06:47;7.10;;;2.70;;
50745;SDS011;36711;51.972;21.204;2022-10-04T00:09:19;5.40;;;2.70;;
50745;SDS011;36711;51.972;21.204;2022-10-04T00:11:50;10.60;;;3.10;;
50745;SDS011;36711;51.972;21.204;2022-10-04T00:16:47;7.30;;;2.60;;
50745;SDS011;36711;51.972;21.204;2022-10-04T00:24:23;6.90;;;2.70;;
50745;SDS011;36711;51.972;21.204;2022-10-04T00:29:22;7.70;;;3.00;;
50745;SDS011;36711;51.972;21.204;2022-10-04T00:34:46;4.50;;;2.50;;
50745;SDS011;36711;51.972;21.204;2022-10-04T00:37:14;7.60;;;2.60;;
50745;SDS011;36711;51.972;21.204;2022-10-04T00:39:43;4.80;;;2.60;;
50745;SDS011;36711;51.972;21.204;2022-10-04T00:45:52;8.30;;;3.00;;
50745;SDS011;36711;51.972;21.204;2022-10-04T00:52:45;5.90;;;2.20;;
50745;SDS011;36711;51.972;21.204;2022-10-04T00:55:58;5.40;;;2.10;;
50745;SDS011;36711;51.972;21.204;2022-10-04T00:58:07;5.60;;;2.10;;
50745;SDS011;36711;51.972;21.204;2022-10-04T01:00:39;6.50;;;2.70;;
50745;SDS011;36711;51.972;21.204;2022-10-04T01:03:09;5.30;;;2.50;;
50745;SDS011;36711;51.972;21.204;2022-10-04T01:05:39;4.30;;;2.10;;
50745;SDS011;36711;51.972;21.204;2022-10-04T01:08:08;5.90;;;2.70;;
50745;SDS011;36711;51.972;21.204;2022-10-04T01:10:41;7.20;;;2.30;;
50745;SDS011;36711;51.972;21.204;2022-10-04T01:13:13;5.90;;;2.40;;
50745;SDS011;36711;51.972;21.204;2022-10-04T01:23:30;5.40;;;2.00;;
50745;SDS011;36711;51.972;21.204;2022-10-04T01:25:58;5.90;;;2.40;;
50745;SDS011;36711;51.972;21.204;2022-10-04T01:28:26;5.70;;;2.50;;
50745;SDS011;36711;51.972;21.204;2022-10-04T01:30:54;3.80;;;2.20;;
50745;SDS011;36711;51.972;21.204;2022-10-04T01:33:21;7.70;;;2.30;;
50745;SDS011;36711;51.972;21.204;2022-10-04T01:35:49;7.70;;;2.50;;
50745;SDS011;36711;51.972;21.204;2022-10-04T01:38:17;5.70;;;2.10;;
50745;SDS011;36711;51.972;21.204;2022-10-04T01:40:45;6.10;;;2.10;;
50745;SDS011;36711;51.972;21.204;2022-10-04T01:43:16;4.60;;;2.00;;
50745;SDS011;36711;51.972;21.204;2022-10-04T01:45:46;5.10;;;2.30;;
50745;SDS011;36711;51.972;21.204;2022-10-04T01:48:15;5.50;;;1.90;;
50745;SDS011;36711;51.972;21.204;2022-10-04T01:50:46;6.80;;;2.10;;
50745;SDS011;36711;51.972;21.204;2022-10-04T01:53:19;8.10;;;2.50;;
50745;SDS011;36711;51.972;21.204;2022-10-04T01:55:53;7.10;;;1.90;;
50745;SDS011;36711;51.972;21.204;2022-10-04T01:58:25;5.00;;;1.80;;
50745;SDS011;36711;51.972;21.204;2022-10-04T02:00:56;3.10;;;1.70;;
50745;SDS011;36711;51.972;21.204;2022-10-04T02:03:27;3.60;;;1.90;;
50745;SDS011;36711;51.972;21.204;2022-10-04T02:05:58;5.50;;;1.90;;
50745;SDS011;36711;51.972;21.204;2022-10-04T02:08:28;4.10;;;1.90;;
50745;SDS011;36711;51.972;21.204;2022-10-04T02:10:58;6.50;;;1.90;;
50745;SDS011;36711;51.972;21.204;2022-10-04T02:13:27;6.20;;;1.50;;
50745;SDS011;36711;51.972;21.204;2022-10-04T02:16:00;5.90;;;1.80;;
50745;SDS011;36711;51.972;21.204;2022-10-04T02:18:29;4.80;;;2.20;;
50745;SDS011;36711;51.972;21.204;2022-10-04T02:20:58;3.70;;;1.80;;
50745;SDS011;36711;51.972;21.204;2022-10-04T02:23:26;3.90;;;1.70;;
50745;SDS011;36711;51.972;21.204;2022-10-04T02:25:54;5.10;;;1.60;;
50745;SDS011;36711;51.972;21.204;2022-10-04T02:28:22;5.50;;;2.00;;
50745;SDS011;36711;51.972;21.204;2022-10-04T02:30:50;6.00;;;1.60;;
50745;SDS011;36711;51.972;21.204;2022-10-04T02:33:37;3.60;;;1.60;;
50745;SDS011;36711;51.972;21.204;2022-10-04T02:36:06;5.20;;;1.70;;
50745;SDS011;36711;51.972;21.204;2022-10-04T02:38:37;7.50;;;1.50;;
50745;SDS011;36711;51.972;21.204;2022-10-04T02:43:49;3.00;;;1.50;;
50745;SDS011;36711;51.972;21.204;2022-10-04T02:46:40;2.80;;;1.30;;
50745;SDS011;36711;51.972;21.204;2022-10-04T02:49:14;7.00;;;1.50;;
50745;SDS011;36711;51.972;21.204;2022-10-04T02:51:51;2.70;;;1.30;;
50745;SDS011;36711;51.972;21.204;2022-10-04T02:54:32;4.20;;;1.00;;
50745;SDS011;36711;51.972;21.204;2022-10-04T02:57:02;7.00;;;1.40;;
50745;SDS011;36711;51.972;21.204;2022-10-04T02:59:30;3.00;;;1.50;;
50745;SDS011;36711;51.972;21.204;2022-10-04T03:02:02;3.30;;;1.10;;
50745;SDS011;36711;51.972;21.204;2022-10-04T03:05:02;3.50;;;1.20;;
50745;SDS011;36711;51.972;21.204;2022-10-04T03:07:32;2.40;;;1.10;;
50745;SDS011;36711;51.972;21.204;2022-10-04T03:10:02;3.70;;;1.20;;
50745;SDS011;36711;51.972;21.204;2022-10-04T03:12:33;4.30;;;1.60;;
50745;SDS011;36711;51.972;21.204;2022-10-04T03:15:01;4.90;;;1.20;;
50745;SDS011;36711;51.972;21.204;2022-10-04T03:17:29;2.30;;;1.10;;
50745;SDS011;36711;51.972;21.204;2022-10-04T03:19:57;2.30;;;1.20;;
50745;SDS011;36711;51.972;21.204;2022-10-04T03:22:26;4.20;;;1.30;;
50745;SDS011;36711;51.972;21.204;2022-10-04T03:24:54;4.30;;;1.40;;
50745;SDS011;36711;51.972;21.204;2022-10-04T03:27:27;2.50;;;1.10;;
50745;SDS011;36711;51.972;21.204;2022-10-04T03:32:25;2.50;;;1.30;;
50745;SDS011;36711;51.972;21.204;2022-10-04T03:35:01;2.90;;;1.10;;
50745;SDS011;36711;51.972;21.204;2022-10-04T03:37:30;2.60;;;1.30;;
50745;SDS011;36711;51.972;21.204;2022-10-04T03:40:00;4.60;;;1.40;;
50745;SDS011;36711;51.972;21.204;2022-10-04T03:42:29;2.40;;;1.10;;
50745;SDS011;36711;51.972;21.204;2022-10-04T03:44:59;6.00;;;1.40;;
50745;SDS011;36711;51.972;21.204;2022-10-04T03:47:31;3.70;;;1.60;;
50745;SDS011;36711;51.972;21.204;2022-10-04T03:50:04;5.00;;;1.20;;
50745;SDS011;36711;51.972;21.204;2022-10-04T03:52:33;4.50;;;1.50;;
50745;SDS011;36711;51.972;21.204;2022-10-04T03:55:04;5.40;;;1.40;;
50745;SDS011;36711;51.972;21.204;2022-10-04T03:57:33;2.00;;;1.40;;
50745;SDS011;36711;51.972;21.204;2022-10-04T04:00:04;4.00;;;1.50;;
50745;SDS011;36711;51.972;21.204;2022-10-04T04:02:34;3.40;;;1.80;;
50745;SDS011;36711;51.972;21.204;2022-10-04T04:05:11;4.60;;;1.30;;
50745;SDS011;36711;51.972;21.204;2022-10-04T04:07:45;2.60;;;1.20;;
50745;SDS011;36711;51.972;21.204;2022-10-04T04:10:30;3.90;;;1.50;;
50745;SDS011;36711;51.972;21.204;2022-10-04T04:15:29;4.60;;;1.50;;
50745;SDS011;36711;51.972;21.204;2022-10-04T04:18:00;2.70;;;1.60;;
50745;SDS011;36711;51.972;21.204;2022-10-04T04:20:38;6.50;;;1.60;;
50745;SDS011;36711;51.972;21.204;2022-10-04T04:25:48;3.30;;;1.90;;
50745;SDS011;36711;51.972;21.204;2022-10-04T04:31:40;6.40;;;1.50;;
50745;SDS011;36711;51.972;21.204;2022-10-04T04:33:50;7.50;;;4.20;;
50745;SDS011;36711;51.972;21.204;2022-10-04T04:36:18;4.40;;;1.70;;
50745;SDS011;36711;51.972;21.204;2022-10-04T04:38:46;3.40;;;1.70;;
50745;SDS011;36711;51.972;21.204;2022-10-04T04:41:32;5.40;;;2.10;;
50745;SDS011;36711;51.972;21.204;2022-10-04T04:44:03;3.70;;;1.90;;
50745;SDS011;36711;51.972;21.204;2022-10-04T04:46:37;9.70;;;4.30;;
50745;SDS011;36711;51.972;21.204;2022-10-04T04:49:06;7.10;;;3.70;;
50745;SDS011;36711;51.972;21.204;2022-10-04T04:51:34;3.70;;;1.80;;
50745;SDS011;36711;51.972;21.204;2022-10-04T04:54:02;3.40;;;2.10;;
50745;SDS011;36711;51.972;21.204;2022-10-04T04:56:32;3.80;;;1.70;;
50745;SDS011;36711;51.972;21.204;2022-10-04T04:59:01;5.50;;;2.10;;
50745;SDS011;36711;51.972;21.204;2022-10-04T05:01:34;2.80;;;1.60;;
50745;SDS011;36711;51.972;21.204;2022-10-04T05:04:04;3.50;;;2.10;;
50745;SDS011;36711;51.972;21.204;2022-10-04T05:06:33;5.60;;;1.90;;
50745;SDS011;36711;51.972;21.204;2022-10-04T05:09:01;3.50;;;1.60;;
50745;SDS011;36711;51.972;21.204;2022-10-04T05:11:30;5.90;;;2.10;;
50745;SDS011;36711;51.972;21.204;2022-10-04T05:16:42;4.40;;;1.60;;
50745;SDS011;36711;51.972;21.204;2022-10-04T05:19:15;3.10;;;1.80;;
50745;SDS011;36711;51.972;21.204;2022-10-04T05:21:49;3.40;;;1.90;;
50745;SDS011;36711;51.972;21.204;2022-10-04T05:24:28;5.50;;;1.50;;
50745;SDS011;36711;51.972;21.204;2022-10-04T05:27:07;7.20;;;2.80;;
50745;SDS011;36711;51.972;21.204;2022-10-04T05:29:39;4.00;;;1.90;;
50745;SDS011;36711;51.972;21.204;2022-10-04T05:34:42;4.50;;;1.60;;
50745;SDS011;36711;51.972;21.204;2022-10-04T05:47:42;9.00;;;2.20;;
50745;SDS011;36711;51.972;21.204;2022-10-04T05:50:18;3.90;;;2.40;;
50745;SDS011;36711;51.972;21.204;2022-10-04T05:52:48;3.80;;;1.50;;
50745;SDS011;36711;51.972;21.204;2022-10-04T05:55:20;3.30;;;1.60;;
50745;SDS011;36711;51.972;21.204;2022-10-04T05:57:51;4.30;;;1.80;;
50745;SDS011;36711;51.972;21.204;2022-10-04T06:00:22;5.60;;;2.10;;
50745;SDS011;36711;51.972;21.204;2022-10-04T06:03:12;5.00;;;2.50;;
50745;SDS011;36711;51.972;21.204;2022-10-04T06:05:59;3.30;;;1.80;;
50745;SDS011;36711;51.972;21.204;2022-10-04T06:22:24;2.80;;;1.40;;
50745;SDS011;36711;51.972;21.204;2022-10-04T06:24:27;4.40;;;1.70;;
50745;SDS011;36711;51.972;21.204;2022-10-04T06:29:44;7.10;;;1.70;;
50745;SDS011;36711;51.972;21.204;2022-10-04T07:01:30;5.30;;;1.70;;
50745;SDS011;36711;51.972;21.204;2022-10-04T07:03:44;2.10;;;1.40;;
50745;SDS011;36711;51.972;21.204;2022-10-04T07:06:22;2.20;;;1.40;;
50745;SDS011;36711;51.972;21.204;2022-10-04T07:08:51;2.10;;;1.70;;
50745;SDS011;36711;51.972;21.204;2022-10-04T07:11:26;3.90;;;1.40;;
50745;SDS011;36711;51.972;21.204;2022-10-04T07:14:03;3.50;;;1.20;;
50745;SDS011;36711;51.972;21.204;2022-10-04T07:16:42;2.30;;;1.30;;
50745;SDS011;36711;51.972;21.204;2022-10-04T07:22:02;4.20;;;1.40;;
50745;SDS011;36711;51.972;21.204;2022-10-04T07:27:14;2.70;;;1.50;;
50745;SDS011;36711;51.972;21.204;2022-10-04T07:29:43;3.50;;;1.10;;
50745;SDS011;36711;51.972;21.204;2022-10-04T07:32:19;4.60;;;1.20;;
50745;SDS011;36711;51.972;21.204;2022-10-04T07:37:50;4.60;;;1.30;;
50745;SDS011;36711;51.972;21.204;2022-10-04T07:40:24;4.30;;;1.60;;
50745;SDS011;36711;51.972;21.204;2022-10-04T07:42:55;4.90;;;1.50;;
50745;SDS011;36711;51.972;21.204;2022-10-04T07:45:27;7.00;;;1.40;;
50745;SDS011;36711;51.972;21.204;2022-10-04T07:48:18;3.40;;;1.30;;
50745;SDS011;36711;51.972;21.204;2022-10-04T07:53:20;3.00;;;1.40;;
50745;SDS011;36711;51.972;21.204;2022-10-04T07:58:24;3.50;;;1.20;;
50745;SDS011;36711;51.972;21.204;2022-10-04T08:05:58;3.70;;;1.10;;
50745;SDS011;36711;51.972;21.204;2022-10-04T08:11:40;3.50;;;0.90;;
50745;SDS011;36711;51.972;21.204;2022-10-04T08:24:47;2.70;;;1.30;;
50745;SDS011;36711;51.972;21.204;2022-10-04T08:27:32;2.50;;;1.20;;
50745;SDS011;36711;51.972;21.204;2022-10-04T08:30:14;4.40;;;1.20;;
50745;SDS011;36711;51.972;21.204;2022-10-04T08:36:00;2.40;;;1.10;;
50745;SDS011;36711;51.972;21.204;2022-10-04T08:38:45;6.00;;;1.10;;
50745;SDS011;36711;51.972;21.204;2022-10-04T08:46:34;3.10;;;1.20;;
50745;SDS011;36711;51.972;21.204;2022-10-04T09:13:13;4.60;;;1.00;;
50745;SDS011;36711;51.972;21.204;2022-10-04T09:15:58;4.20;;;0.90;;
50745;SDS011;36711;51.972;21.204;2022-10-04T09:18:48;7.10;;;1.10;;
50745;SDS011;36711;51.972;21.204;2022-10-04T09:21:24;5.80;;;0.80;;
50745;SDS011;36711;51.972;21.204;2022-10-04T09:34:22;3.50;;;0.90;;
50745;SDS011;36711;51.972;21.204;2022-10-04T09:37:15;1.30;;;0.90;;
50745;SDS011;36711;51.972;21.204;2022-10-04T09:52:39;1.20;;;0.70;;
50745;SDS011;36711;51.972;21.204;2022-10-04T09:57:53;3.00;;;0.80;;
50745;SDS011;36711;51.972;21.204;2022-10-04T10:00:25;3.70;;;0.80;;
50745;SDS011;36711;51.972;21.204;2022-10-04T10:14:12;2.80;;;0.70;;
50745;SDS011;36711;51.972;21.204;2022-10-04T10:19:34;2.70;;;0.60;;
50745;SDS011;36711;51.972;21.204;2022-10-04T10:27:14;0.80;;;0.60;;
50745;SDS011;36711;51.972;21.204;2022-10-04T10:42:42;2.00;;;0.40;;
50745;SDS011;36711;51.972;21.204;2022-10-04T10:48:04;1.40;;;0.40;;
50745;SDS011;36711;51.972;21.204;2022-10-04T10:53:18;1.20;;;0.50;;
50745;SDS011;36711;51.972;21.204;2022-10-04T11:28:03;1.80;;;1.00;;
50745;SDS011;36711;51.972;21.204;2022-10-04T11:41:51;1.40;;;0.50;;
50745;SDS011;36711;51.972;21.204;2022-10-04T11:44:46;1.60;;;0.70;;
50745;SDS011;36711;51.972;21.204;2022-10-04T11:55:12;2.60;;;0.60;;
50745;SDS011;36711;51.972;21.204;2022-10-04T11:57:47;2.30;;;0.80;;
50745;SDS011;36711;51.972;21.204;2022-10-04T12:00:19;2.50;;;0.60;;
50745;SDS011;36711;51.972;21.204;2022-10-04T12:10:28;1.00;;;0.60;;
50745;SDS011;36711;51.972;21.204;2022-10-04T12:31:41;5.10;;;0.80;;
50745;SDS011;36711;51.972;21.204;2022-10-04T12:34:22;1.00;;;0.60;;
50745;SDS011;36711;51.972;21.204;2022-10-04T12:45:16;1.60;;;0.70;;
50745;SDS011;36711;51.972;21.204;2022-10-04T12:55:44;2.40;;;0.70;;
50745;SDS011;36711;51.972;21.204;2022-10-04T13:01:23;3.40;;;1.00;;
50745;SDS011;36711;51.972;21.204;2022-10-04T13:17:00;3.00;;;0.80;;
50745;SDS011;36711;51.972;21.204;2022-10-04T13:23:25;4.10;;;0.90;;
50745;SDS011;36711;51.972;21.204;2022-10-04T13:27:56;3.00;;;0.90;;
50745;SDS011;36711;51.972;21.204;2022-10-04T13:31:12;5.00;;;1.40;;
50745;SDS011;36711;51.972;21.204;2022-10-04T13:43:52;2.70;;;1.60;;
50745;SDS011;36711;51.972;21.204;2022-10-04T13:46:39;2.60;;;1.70;;
50745;SDS011;36711;51.972;21.204;2022-10-04T13:49:22;3.20;;;1.60;;
50745;SDS011;36711;51.972;21.204;2022-10-04T13:52:08;4.70;;;1.90;;
50745;SDS011;36711;51.972;21.204;2022-10-04T13:57:48;2.10;;;1.40;;
50745;SDS011;36711;51.972;21.204;2022-10-04T14:00:19;7.70;;;1.80;;
50745;SDS011;36711;51.972;21.204;2022-10-04T14:05:45;3.90;;;1.30;;
50745;SDS011;36711;51.972;21.204;2022-10-04T14:13:17;1.70;;;1.40;;
50745;SDS011;36711;51.972;21.204;2022-10-04T14:36:29;3.10;;;1.30;;
50745;SDS011;36711;51.972;21.204;2022-10-04T14:44:35;1.50;;;1.10;;
50745;SDS011;36711;51.972;21.204;2022-10-04T14:50:01;3.90;;;1.30;;
50745;SDS011;36711;51.972;21.204;2022-10-04T15:06:23;3.60;;;1.40;;
50745;SDS011;36711;51.972;21.204;2022-10-04T15:08:56;5.60;;;1.50;;
50745;SDS011;36711;51.972;21.204;2022-10-04T15:14:02;3.80;;;1.40;;
50745;SDS011;36711;51.972;21.204;2022-10-04T15:19:06;4.50;;;1.50;;
50745;SDS011;36711;51.972;21.204;2022-10-04T15:21:42;4.70;;;2.20;;
50745;SDS011;36711;51.972;21.204;2022-10-04T15:37:09;3.60;;;2.30;;
50745;SDS011;36711;51.972;21.204;2022-10-04T15:48:20;4.50;;;2.40;;
50745;SDS011;36711;51.972;21.204;2022-10-04T16:13:24;4.70;;;1.50;;
50745;SDS011;36711;51.972;21.204;2022-10-04T16:31:49;7.50;;;1.90;;
50745;SDS011;36711;51.972;21.204;2022-10-04T16:44:54;3.70;;;2.10;;
50745;SDS011;36711;51.972;21.204;2022-10-04T16:49:53;14.80;;;5.70;;
50745;SDS011;36711;51.972;21.204;2022-10-04T16:57:43;5.80;;;2.40;;
50745;SDS011;36711;51.972;21.204;2022-10-04T17:00:25;4.80;;;2.70;;
50745;SDS011;36711;51.972;21.204;2022-10-04T17:08:15;11.30;;;6.70;;
50745;SDS011;36711;51.972;21.204;2022-10-04T17:18:29;18.80;;;13.50;;
50745;SDS011;36711;51.972;21.204;2022-10-04T17:21:00;11.50;;;7.20;;
50745;SDS011;36711;51.972;21.204;2022-10-04T17:28:45;11.50;;;5.90;;
50745;SDS011;36711;51.972;21.204;2022-10-04T17:31:17;43.00;;;16.90;;
50745;SDS011;36711;51.972;21.204;2022-10-04T17:34:30;15.10;;;6.90;;
50745;SDS011;36711;51.972;21.204;2022-10-04T17:36:49;10.60;;;4.50;;
50745;SDS011;36711;51.972;21.204;2022-10-04T17:39:43;7.60;;;4.00;;
50745;SDS011;36711;51.972;21.204;2022-10-04T17:42:13;31.20;;;10.60;;
50745;SDS011;36711;51.972;21.204;2022-10-04T17:44:48;16.30;;;5.70;;
50745;SDS011;36711;51.972;21.204;2022-10-04T17:47:27;9.40;;;4.80;;
50745;SDS011;36711;51.972;21.204;2022-10-04T17:50:54;11.00;;;4.80;;
50745;SDS011;36711;51.972;21.204;2022-10-04T17:53:33;11.60;;;4.40;;
50745;SDS011;36711;51.972;21.204;2022-10-04T17:56:26;8.30;;;4.20;;
50745;SDS011;36711;51.972;21.204;2022-10-04T17:58:56;10.00;;;4.30;;
50745;SDS011;36711;51.972;21.204;2022-10-04T18:01:27;10.50;;;4.50;;
50745;SDS011;36711;51.972;21.204;2022-10-04T18:04:07;10.20;;;5.30;;
50745;SDS011;36711;51.972;21.204;2022-10-04T18:06:36;19.40;;;11.20;;
50745;SDS011;36711;51.972;21.204;2022-10-04T18:11:43;169.00;;;75.60;;
50745;SDS011;36711;51.972;21.204;2022-10-04T18:17:09;67.40;;;26.30;;
50745;SDS011;36711;51.972;21.204;2022-10-04T18:19:47;110.50;;;37.40;;
50745;SDS011;36711;51.972;21.204;2022-10-04T18:22:18;80.50;;;30.00;;
50745;SDS011;36711;51.972;21.204;2022-10-04T18:24:47;39.50;;;13.60;;
50745;SDS011;36711;51.972;21.204;2022-10-04T18:27:19;28.70;;;10.70;;
50745;SDS011;36711;51.972;21.204;2022-10-04T18:34:55;41.70;;;21.70;;
50745;SDS011;36711;51.972;21.204;2022-10-04T18:37:41;23.40;;;10.30;;
50745;SDS011;36711;51.972;21.204;2022-10-04T18:40:13;12.70;;;6.50;;
50745;SDS011;36711;51.972;21.204;2022-10-04T18:42:47;22.50;;;8.20;;
50745;SDS011;36711;51.972;21.204;2022-10-04T18:47:44;16.00;;;6.00;;
50745;SDS011;36711;51.972;21.204;2022-10-04T18:50:22;15.40;;;6.20;;
50745;SDS011;36711;51.972;21.204;2022-10-04T18:55:40;16.50;;;10.40;;
50745;SDS011;36711;51.972;21.204;2022-10-04T18:58:20;10.60;;;5.10;;
50745;SDS011;36711;51.972;21.204;2022-10-04T19:04:16;9.40;;;3.90;;
50745;SDS011;36711;51.972;21.204;2022-10-04T19:06:46;9.80;;;4.50;;
50745;SDS011;36711;51.972;21.204;2022-10-04T19:11:46;10.10;;;5.00;;
50745;SDS011;36711;51.972;21.204;2022-10-04T19:16:59;9.20;;;4.90;;
50745;SDS011;36711;51.972;21.204;2022-10-04T19:27:42;11.50;;;4.70;;
50745;SDS011;36711;51.972;21.204;2022-10-04T19:30:15;13.70;;;5.30;;
50745;SDS011;36711;51.972;21.204;2022-10-04T19:40:16;7.20;;;4.40;;
50745;SDS011;36711;51.972;21.204;2022-10-04T19:50:47;11.00;;;5.20;;
50745;SDS011;36711;51.972;21.204;2022-10-04T19:58:19;9.10;;;4.20;;
50745;SDS011;36711;51.972;21.204;2022-10-04T20:00:50;7.20;;;4.40;;
50745;SDS011;36711;51.972;21.204;2022-10-04T20:03:18;10.20;;;4.00;;
50745;SDS011;36711;51.972;21.204;2022-10-04T20:05:52;9.60;;;4.40;;
50745;SDS011;36711;51.972;21.204;2022-10-04T20:11:11;11.20;;;5.00;;
50745;SDS011;36711;51.972;21.204;2022-10-04T20:13:40;9.40;;;4.30;;
50745;SDS011;36711;51.972;21.204;2022-10-04T20:16:07;9.60;;;4.60;;
50745;SDS011;36711;51.972;21.204;2022-10-04T20:21:04;7.70;;;3.90;;
50745;SDS011;36711;51.972;21.204;2022-10-04T20:26:36;10.90;;;4.60;;
50745;SDS011;36711;51.972;21.204;2022-10-04T20:32:03;11.20;;;4.70;;
50745;SDS011;36711;51.972;21.204;2022-10-04T20:37:08;12.50;;;4.90;;
50745;SDS011;36711;51.972;21.204;2022-10-04T20:42:07;10.70;;;4.90;;
50745;SDS011;36711;51.972;21.204;2022-10-04T20:44:55;8.60;;;4.70;;
50745;SDS011;36711;51.972;21.204;2022-10-04T20:47:32;13.20;;;5.30;;
50745;SDS011;36711;51.972;21.204;2022-10-04T20:50:00;14.40;;;5.30;;
50745;SDS011;36711;51.972;21.204;2022-10-04T20:52:29;12.20;;;4.60;;
50745;SDS011;36711;51.972;21.204;2022-10-04T20:54:58;10.10;;;4.90;;
50745;SDS011;36711;51.972;21.204;2022-10-04T20:57:28;12.40;;;4.80;;
50745;SDS011;36711;51.972;21.204;2022-10-04T20:59:56;14.20;;;5.20;;
50745;SDS011;36711;51.972;21.204;2022-10-04T21:02:25;11.70;;;5.30;;
50745;SDS011;36711;51.972;21.204;2022-10-04T21:05:10;12.20;;;5.20;;
50745;SDS011;36711;51.972;21.204;2022-10-04T21:07:38;13.60;;;5.10;;
50745;SDS011;36711;51.972;21.204;2022-10-04T21:10:16;11.60;;;5.40;;
50745;SDS011;36711;51.972;21.204;2022-10-04T21:12:44;12.10;;;5.20;;
50745;SDS011;36711;51.972;21.204;2022-10-04T21:17:59;14.60;;;5.80;;
50745;SDS011;36711;51.972;21.204;2022-10-04T21:25:41;10.60;;;5.20;;
50745;SDS011;36711;51.972;21.204;2022-10-04T21:28:21;14.20;;;4.60;;
50745;SDS011;36711;51.972;21.204;2022-10-04T21:30:49;12.60;;;4.70;;
50745;SDS011;36711;51.972;21.204;2022-10-04T21:33:17;11.40;;;5.00;;
50745;SDS011;36711;51.972;21.204;2022-10-04T21:35:47;10.20;;;4.80;;
50745;SDS011;36711;51.972;21.204;2022-10-04T21:38:15;13.20;;;4.60;;
50745;SDS011;36711;51.972;21.204;2022-10-04T21:40:43;10.30;;;4.90;;
50745;SDS011;36711;51.972;21.204;2022-10-04T21:43:10;13.40;;;5.50;;
50745;SDS011;36711;51.972;21.204;2022-10-04T21:45:38;8.40;;;4.70;;
50745;SDS011;36711;51.972;21.204;2022-10-04T21:48:06;10.80;;;4.90;;
50745;SDS011;36711;51.972;21.204;2022-10-04T21:50:33;13.90;;;5.40;;
50745;SDS011;36711;51.972;21.204;2022-10-04T21:53:01;10.70;;;5.60;;
50745;SDS011;36711;51.972;21.204;2022-10-04T21:55:29;9.40;;;4.60;;
50745;SDS011;36711;51.972;21.204;2022-10-04T21:57:56;10.10;;;4.80;;
50745;SDS011;36711;51.972;21.204;2022-10-04T22:00:24;9.60;;;5.00;;
50745;SDS011;36711;51.972;21.204;2022-10-04T22:02:52;11.90;;;4.50;;
50745;SDS011;36711;51.972;21.204;2022-10-04T22:05:19;10.90;;;4.50;;
50745;SDS011;36711;51.972;21.204;2022-10-04T22:07:47;10.40;;;5.10;;
50745;SDS011;36711;51.972;21.204;2022-10-04T22:10:15;12.10;;;4.90;;
50745;SDS011;36711;51.972;21.204;2022-10-04T22:12:42;8.60;;;4.50;;
50745;SDS011;36711;51.972;21.204;2022-10-04T22:15:10;11.10;;;4.70;;
50745;SDS011;36711;51.972;21.204;2022-10-04T22:17:38;9.70;;;4.40;;
50745;SDS011;36711;51.972;21.204;2022-10-04T22:20:05;7.10;;;4.50;;
50745;SDS011;36711;51.972;21.204;2022-10-04T22:22:33;13.70;;;5.00;;
50745;SDS011;36711;51.972;21.204;2022-10-04T22:25:12;14.30;;;4.90;;
50745;SDS011;36711;51.972;21.204;2022-10-04T22:27:40;11.40;;;4.50;;
50745;SDS011;36711;51.972;21.204;2022-10-04T22:30:10;9.90;;;5.20;;
50745;SDS011;36711;51.972;21.204;2022-10-04T22:32:44;7.90;;;4.30;;
50745;SDS011;36711;51.972;21.204;2022-10-04T22:35:13;13.20;;;4.40;;
50745;SDS011;36711;51.972;21.204;2022-10-04T22:37:41;7.30;;;4.40;;
50745;SDS011;36711;51.972;21.204;2022-10-04T22:40:12;11.80;;;4.60;;
50745;SDS011;36711;51.972;21.204;2022-10-04T22:42:40;10.30;;;4.40;;
50745;SDS011;36711;51.972;21.204;2022-10-04T22:45:15;10.10;;;4.60;;
50745;SDS011;36711;51.972;21.204;2022-10-04T22:47:44;9.40;;;5.30;;
50745;SDS011;36711;51.972;21.204;2022-10-04T22:50:17;13.20;;;4.70;;
50745;SDS011;36711;51.972;21.204;2022-10-04T22:52:47;9.90;;;4.30;;
50745;SDS011;36711;51.972;21.204;2022-10-04T22:55:16;9.20;;;4.80;;
50745;SDS011;36711;51.972;21.204;2022-10-04T22:57:44;12.90;;;5.30;;
50745;SDS011;36711;51.972;21.204;2022-10-04T23:00:11;10.00;;;4.80;;
50745;SDS011;36711;51.972;21.204;2022-10-04T23:02:39;11.80;;;4.80;;
50745;SDS011;36711;51.972;21.204;2022-10-04T23:05:17;10.60;;;5.40;;
50745;SDS011;36711;51.972;21.204;2022-10-04T23:07:45;9.50;;;5.60;;
50745;SDS011;36711;51.972;21.204;2022-10-04T23:10:15;10.40;;;4.80;;
50745;SDS011;36711;51.972;21.204;2022-10-04T23:12:47;8.20;;;4.50;;
50745;SDS011;36711;51.972;21.204;2022-10-04T23:15:17;11.10;;;4.80;;
50745;SDS011;36711;51.972;21.204;2022-10-04T23:17:47;12.50;;;4.90;;
50745;SDS011;36711;51.972;21.204;2022-10-04T23:20:17;11.80;;;5.30;;
50745;SDS011;36711;51.972;21.204;2022-10-04T23:22:47;11.50;;;4.90;;
50745;SDS011;36711;51.972;21.204;2022-10-04T23:25:16;13.80;;;5.10;;
50745;SDS011;36711;51.972;21.204;2022-10-04T23:27:45;12.80;;;5.80;;
50745;SDS011;36711;51.972;21.204;2022-10-04T23:30:19;9.40;;;5.40;;
50745;SDS011;36711;51.972;21.204;2022-10-04T23:32:48;10.10;;;4.60;;
50745;SDS011;36711;51.972;21.204;2022-10-04T23:35:17;10.60;;;4.90;;
50745;SDS011;36711;51.972;21.204;2022-10-04T23:37:46;9.80;;;5.00;;
50745;SDS011;36711;51.972;21.204;2022-10-04T23:40:15;11.80;;;5.30;;
50745;SDS011;36711;51.972;21.204;2022-10-04T23:42:44;12.10;;;5.40;;
50745;SDS011;36711;51.972;21.204;2022-10-04T23:45:14;16.00;;;5.60;;
50745;SDS011;36711;51.972;21.204;2022-10-04T23:47:43;9.70;;;6.10;;
50745;SDS011;36711;51.972;21.204;2022-10-04T23:50:23;10.20;;;5.00;;
50745;SDS011;36711;51.972;21.204;2022-10-04T23:52:52;9.70;;;4.80;;
50745;SDS011;36711;51.972;21.204;2022-10-04T23:55:26;12.70;;;5.40;;
50745;SDS011;36711;51.972;21.204;2022-10-04T23:57:55;18.40;;;6.00;;
